Aeroporto :
LOGIN :

Iscrizione | Disclaimer

   EN    FR    IT 

 










Sommario :    VFR   VFR Marginale   IFR   IFR Intensivo   IFR Molto Intensivo
Visibilità : 
Base nubi : 
>= 8 km
>= 3000ft
5 / 8 km
1000 / 3000 ft
1500m / 5 km
500 / 1000 ft
800 / 1500m
200 / 500 ft
< 800m
< 200 ft
Simboli :   Temporali  Nebbia  Neve Forte  Precipitazioni Forti  Vento > 20 kt
SIGMETs :   Varie  Temporali  Ghiacco  Turbolenza  Onda orograficha  Ceneri Vulcaniche






- Altitudine del aeroporto : 27 ft
- Codice IATA : PMI


LEPA - Palma de Mallorca

ULTIMO METAR :
  • 252300Z 18004KT CAVOK 08/07 Q1015 NOSIG

METARs OBSOLETI :
  • 252230Z 18005KT CAVOK 09/06 Q1015 NOSIG
  • 252200Z 11002KT CAVOK 10/06 Q1015 NOSIG
  • 252130Z 18003KT CAVOK 10/06 Q1015 NOSIG
  • 252100Z 19002KT CAVOK 15/09 Q1015 NOSIG
  • 252030Z 23004KT 190V250 CAVOK 17/04 Q1015 NOSIG

TAF TAF LEPA
Valido dal 25 a 18 ore il 26 a 18 ore UTC


251700Z 2518/2618 31007KT 9999 FEW022 TX17/2613Z TN07/2606Z
TEMPO 2518/2601 26005KT
BECMG 2601/2603 31014KT
TEMPO 2603/2617 31018G30KT
BECMG 2617/2618 30004KT



MetMap, La meteo Aeronautica in un colpo d'occhio ! - Copyright ORBIFLY Dicembre 2007 - Disclaimer

ORBIFLY MET'MAP TEAM :

Programmazione e sviluppo : Alexandra Zaïnal
Concezione : Baudouin d'Aumeries
Aiuto per la programmazione : Marc-Olivier Méhu
Supporto tecnico e logistico : Manuel Goepfert
Aiuto per la traduzione : Arnaldo La Scala

Contatto : metmap@orbifly.com




FONTI E CREDITI :

   NOAA